createdAt,value
2022-10-15T00:00:59.249Z,25.93
2022-10-15T00:04:16.979Z,23.83
2022-10-15T00:07:33.851Z,23.23
2022-10-15T00:10:51.663Z,24.50
2022-10-15T00:14:09.261Z,29.03
2022-10-15T00:17:25.697Z,24.25
2022-10-15T00:20:42.349Z,25.33
2022-10-15T00:23:58.962Z,26.80
2022-10-15T00:27:15.318Z,24.95
2022-10-15T00:30:31.457Z,26.58
2022-10-15T00:33:49.142Z,23.93
2022-10-15T00:37:05.179Z,25.10
2022-10-15T00:40:23.686Z,24.33
2022-10-15T00:43:50.240Z,22.73
2022-10-15T00:47:10.708Z,23.35
2022-10-15T00:50:30.750Z,22.88
2022-10-15T00:53:47.138Z,24.18
2022-10-15T00:57:04.749Z,24.95
2022-10-15T01:00:25.102Z,27.23
2022-10-15T01:03:41.262Z,23.93
2022-10-15T01:06:57.355Z,28.05
2022-10-15T01:10:15.753Z,27.00
2022-10-15T01:13:41.759Z,27.45
2022-10-15T01:17:04.123Z,28.83
2022-10-15T01:20:58.550Z,28.23
2022-10-15T01:24:48.638Z,29.93
2022-10-15T01:28:10.714Z,29.00
2022-10-15T01:31:34.097Z,31.45
2022-10-15T01:34:56.077Z,31.10
2022-10-15T01:38:21.526Z,32.33
2022-10-15T01:41:43.463Z,37.43
2022-10-15T01:45:03.906Z,32.55
2022-10-15T01:48:26.855Z,29.18
2022-10-15T01:51:48.744Z,32.00
2022-10-15T01:55:07.458Z,31.65
2022-10-15T01:58:26.580Z,35.68
2022-10-15T02:04:58.475Z,35.73
2022-10-15T02:08:20.326Z,34.43
2022-10-15T02:11:43.378Z,37.25
2022-10-15T02:15:04.692Z,39.80
2022-10-15T02:18:25.957Z,33.38
2022-10-15T02:21:47.801Z,36.45
2022-10-15T02:25:09.364Z,35.35
2022-10-15T02:28:27.667Z,36.58
2022-10-15T02:31:47.691Z,36.90
2022-10-15T02:35:04.666Z,35.58
2022-10-15T02:38:25.129Z,33.43
2022-10-15T02:41:43.862Z,39.38
2022-10-15T02:45:01.175Z,40.25
2022-10-15T02:48:18.097Z,37.85
2022-10-15T02:51:38.708Z,37.20
2022-10-15T02:54:54.912Z,35.35
2022-10-15T02:58:11.428Z,39.28
2022-10-15T03:01:28.015Z,42.60
2022-10-15T03:04:44.516Z,37.65
2022-10-15T03:08:03.153Z,37.13
2022-10-15T03:14:34.549Z,38.75
2022-10-15T03:17:52.984Z,40.13
2022-10-15T03:21:09.765Z,40.17
2022-10-15T03:24:26.930Z,37.05
2022-10-15T03:27:43.146Z,38.15
2022-10-15T03:31:00.919Z,36.13
2022-10-15T03:34:17.643Z,39.30
2022-10-15T03:37:34.724Z,38.78
2022-10-15T03:40:52.935Z,37.23
2022-10-15T03:44:13.915Z,39.73
2022-10-15T03:47:31.731Z,39.60
2022-10-15T03:50:49.271Z,40.25
2022-10-15T03:54:06.075Z,40.23
2022-10-15T03:57:23.801Z,37.80
2022-10-15T04:00:42.113Z,33.98
2022-10-15T04:04:01.188Z,35.55
2022-10-15T04:07:18.462Z,35.95
2022-10-15T04:10:35.432Z,35.30
2022-10-15T04:13:55.404Z,36.68
2022-10-15T04:17:11.770Z,36.28
2022-10-15T04:20:28.342Z,34.40
2022-10-15T04:23:46.751Z,35.18
2022-10-15T04:27:08.397Z,32.53
2022-10-15T04:30:25.877Z,35.55
2022-10-15T04:33:44.123Z,27.90
2022-10-15T04:37:00.681Z,32.50
2022-10-15T04:40:20.208Z,35.00
2022-10-15T04:46:52.788Z,31.40
2022-10-15T04:50:26.055Z,29.65
2022-10-15T04:54:03.132Z,27.50
2022-10-15T04:57:19.379Z,26.53
2022-10-15T05:00:35.588Z,22.15
2022-10-15T05:03:58.348Z,22.60
2022-10-15T05:07:15.242Z,20.40
2022-10-15T05:10:31.499Z,22.55
2022-10-15T05:13:49.623Z,25.25
2022-10-15T05:17:06.481Z,20.70
2022-10-15T05:20:24.644Z,21.13
2022-10-15T05:23:42.057Z,21.73
2022-10-15T05:27:05.440Z,25.18
2022-10-15T05:30:23.459Z,25.53
2022-10-15T05:33:40.997Z,23.75
2022-10-15T05:36:58.067Z,19.93
2022-10-15T05:40:19.651Z,21.73
2022-10-15T05:43:40.307Z,18.88
2022-10-15T05:46:55.108Z,20.17
2022-10-15T05:50:14.523Z,20.35
2022-10-15T05:53:32.477Z,22.55
2022-10-15T05:56:50.249Z,19.98
2022-10-15T06:00:06.354Z,23.58
2022-10-15T06:03:24.819Z,20.33
2022-10-15T06:06:40.881Z,20.58
2022-10-15T06:09:57.569Z,19.50
2022-10-15T06:13:16.152Z,19.60
2022-10-15T06:16:32.751Z,22.18
2022-10-15T06:19:49.338Z,19.63
2022-10-15T06:23:11.846Z,19.25
2022-10-15T06:26:28.557Z,18.23
2022-10-15T06:29:44.985Z,23.40
2022-10-15T06:33:02.344Z,18.03
2022-10-15T06:36:19.862Z,17.38
2022-10-15T06:39:36.089Z,16.78
2022-10-15T06:42:52.557Z,17.25
2022-10-15T06:46:09.697Z,19.15
2022-10-15T06:49:25.770Z,16.20
2022-10-15T06:52:42.477Z,15.93
2022-10-15T06:56:07.606Z,14.75
2022-10-15T06:59:26.780Z,15.08
2022-10-15T07:02:48.838Z,15.60
2022-10-15T07:06:12.767Z,19.15
2022-10-15T07:09:29.102Z,17.05
2022-10-15T07:12:48.742Z,17.33
2022-10-15T07:16:05.315Z,16.68
2022-10-15T07:19:22.254Z,16.80
2022-10-15T07:22:38.359Z,13.38
2022-10-15T07:25:54.745Z,17.63
2022-10-15T07:29:11.590Z,17.55
2022-10-15T07:32:28.437Z,17.70
2022-10-15T07:35:45.222Z,16.33
2022-10-15T07:39:01.452Z,16.15
2022-10-15T07:42:17.642Z,16.30
2022-10-15T07:45:34.876Z,16.28
2022-10-15T07:52:08.533Z,31.90
2022-10-15T07:55:25.051Z,18.50
2022-10-15T07:58:41.382Z,16.90
2022-10-15T08:01:57.602Z,15.88
2022-10-15T08:05:15.514Z,15.90
2022-10-15T08:08:34.039Z,15.95
2022-10-15T08:11:50.740Z,15.73
2022-10-15T08:15:08.187Z,14.78
2022-10-15T08:18:24.404Z,14.65
2022-10-15T08:21:42.718Z,17.05
2022-10-15T08:24:58.141Z,14.73
2022-10-15T08:28:14.866Z,16.45
2022-10-15T08:31:32.482Z,14.78
2022-10-15T08:34:48.583Z,13.48
2022-10-15T08:38:05.252Z,13.05
2022-10-15T08:41:33.395Z,13.10
2022-10-15T08:44:55.110Z,14.03
2022-10-15T08:48:16.270Z,15.00
2022-10-15T08:51:39.567Z,13.85
2022-10-15T08:54:55.653Z,11.85
2022-10-15T08:58:19.152Z,35.90
2022-10-15T09:01:41.167Z,20.43
2022-10-15T09:05:05.291Z,12.43
2022-10-15T09:08:30.879Z,12.10
2022-10-15T09:11:56.528Z,13.70
2022-10-15T09:15:16.506Z,10.80
2022-10-15T09:18:37.593Z,13.90
2022-10-15T09:21:57.756Z,11.15
2022-10-15T09:25:28.606Z,11.15
2022-10-15T09:28:54.437Z,13.35
2022-10-15T09:32:19.667Z,13.20
2022-10-15T09:35:40.866Z,11.38
2022-10-15T09:39:07.818Z,11.75
2022-10-15T09:42:34.594Z,11.30
2022-10-15T09:45:51.796Z,35.00
2022-10-15T09:49:18.453Z,20.00
2022-10-15T09:52:48.277Z,12.83
2022-10-15T09:56:09.050Z,10.07
2022-10-15T09:59:29.399Z,11.95
2022-10-15T10:02:49.877Z,11.78
2022-10-15T10:06:14.992Z,11.58
2022-10-15T10:09:37.629Z,10.35
2022-10-15T10:12:55.156Z,10.45
2022-10-15T10:16:17.923Z,12.68
2022-10-15T10:19:34.194Z,10.48
2022-10-15T10:22:55.284Z,11.98
2022-10-15T10:26:16.613Z,9.80
2022-10-15T10:29:35.307Z,10.90
2022-10-15T10:32:55.079Z,37.23
2022-10-15T10:36:13.819Z,11.83
2022-10-15T10:39:37.289Z,9.45
2022-10-15T10:42:53.406Z,13.35
2022-10-15T10:46:15.415Z,9.98
2022-10-15T10:49:43.773Z,8.33
2022-10-15T10:53:20.624Z,8.78
2022-10-15T10:56:40.735Z,10.20
2022-10-15T11:00:00.926Z,8.40
2022-10-15T11:03:26.856Z,8.95
2022-10-15T11:07:04.388Z,8.65
2022-10-15T11:10:27.376Z,8.85
2022-10-15T11:13:59.320Z,8.03
2022-10-15T11:17:21.925Z,9.68
2022-10-15T11:20:56.305Z,7.63
2022-10-15T11:24:37.792Z,10.33
2022-10-15T11:28:14.627Z,8.43
2022-10-15T11:31:44.020Z,8.20
2022-10-15T11:35:07.312Z,7.85
2022-10-15T11:38:31.351Z,9.48
2022-10-15T11:41:53.411Z,8.05
2022-10-15T11:45:44.448Z,12.58
2022-10-15T11:49:13.454Z,10.15
2022-10-15T11:52:53.872Z,11.30
2022-10-15T11:56:16.016Z,9.80
2022-10-15T11:59:43.513Z,11.33
2022-10-15T12:03:03.542Z,8.83
2022-10-15T12:06:24.052Z,10.00
2022-10-15T12:09:44.815Z,9.68
2022-10-15T12:13:06.282Z,12.20
2022-10-15T12:16:30.872Z,10.13
2022-10-15T12:19:52.032Z,8.50
2022-10-15T12:23:10.852Z,9.30
2022-10-15T12:26:39.937Z,9.15
2022-10-15T12:30:05.132Z,10.25
2022-10-15T12:33:41.023Z,9.13
2022-10-15T12:37:06.701Z,11.58
2022-10-15T12:40:34.958Z,19.68
2022-10-15T12:43:56.454Z,8.57
2022-10-15T12:47:14.876Z,8.28
2022-10-15T12:50:36.363Z,9.03
2022-10-15T12:53:56.938Z,8.93
2022-10-15T12:57:44.976Z,9.30
2022-10-15T13:01:01.117Z,9.85
2022-10-15T13:04:17.902Z,7.15
2022-10-15T13:07:36.803Z,6.73
2022-10-15T13:11:00.728Z,7.33
2022-10-15T13:14:30.169Z,7.15
2022-10-15T13:17:48.765Z,6.63
2022-10-15T13:21:11.271Z,6.95
2022-10-15T13:24:30.012Z,8.10
2022-10-15T13:27:47.110Z,6.48
2022-10-15T13:31:03.991Z,6.10
2022-10-15T13:34:29.981Z,6.50
2022-10-15T13:37:51.812Z,12.78
2022-10-15T13:41:08.209Z,11.65
2022-10-15T13:44:34.647Z,6.80
2022-10-15T13:47:54.774Z,7.98
2022-10-15T13:51:15.041Z,7.28
2022-10-15T13:54:34.256Z,8.15
2022-10-15T13:57:53.819Z,7.18
2022-10-15T14:01:14.197Z,6.75
2022-10-15T14:04:32.057Z,8.98
2022-10-15T14:07:48.074Z,7.20
2022-10-15T14:11:06.955Z,8.13
2022-10-15T14:14:48.911Z,6.20
2022-10-15T14:18:06.309Z,5.93
2022-10-15T14:21:28.905Z,8.48
2022-10-15T14:24:47.557Z,10.35
2022-10-15T14:28:04.043Z,6.90
2022-10-15T14:31:32.449Z,7.25
2022-10-15T14:34:50.197Z,8.53
2022-10-15T14:38:21.774Z,78.93
2022-10-15T14:41:40.761Z,17.13
2022-10-15T14:45:01.457Z,9.48
2022-10-15T14:48:25.088Z,8.85
2022-10-15T14:51:42.547Z,8.38
2022-10-15T14:55:06.351Z,11.03
2022-10-15T14:58:27.603Z,7.55
2022-10-15T15:05:22.518Z,9.58
2022-10-15T15:08:38.889Z,9.53
2022-10-15T15:12:21.800Z,11.90
2022-10-15T15:15:30.270Z,6.85
2022-10-15T15:18:49.045Z,7.50
2022-10-15T15:22:05.837Z,27.20
2022-10-15T15:25:29.766Z,17.60
2022-10-15T15:28:46.779Z,11.48
2022-10-15T15:32:02.933Z,8.55
2022-10-15T15:35:32.390Z,12.00
2022-10-15T15:38:51.889Z,9.85
2022-10-15T15:42:08.149Z,8.70
2022-10-15T15:45:33.612Z,8.15
2022-10-15T15:48:50.545Z,9.35
2022-10-15T15:52:06.850Z,11.38
2022-10-15T15:55:26.404Z,9.38
2022-10-15T15:58:42.960Z,10.98
2022-10-15T16:01:59.243Z,9.18
2022-10-15T16:05:19.934Z,11.20
2022-10-15T16:08:37.958Z,10.18
2022-10-15T16:11:54.431Z,12.23
2022-10-15T16:15:14.556Z,12.00
2022-10-15T16:18:30.078Z,11.93
2022-10-15T16:21:46.208Z,12.75
2022-10-15T16:25:04.988Z,11.73
2022-10-15T16:28:21.782Z,15.20
2022-10-15T16:31:38.376Z,12.13
2022-10-15T16:34:54.581Z,14.63
2022-10-15T16:38:13.937Z,12.90
2022-10-15T16:41:32.148Z,14.00
2022-10-15T16:44:48.337Z,10.45
2022-10-15T16:48:08.535Z,11.05
2022-10-15T16:51:26.725Z,7.90
2022-10-15T16:54:43.141Z,8.13
2022-10-15T16:57:59.321Z,9.30
2022-10-15T17:01:18.483Z,10.45
2022-10-15T17:04:35.161Z,8.58
2022-10-15T17:07:51.305Z,8.60
2022-10-15T17:11:07.509Z,10.45
2022-10-15T17:14:25.475Z,9.85
2022-10-15T17:17:46.062Z,9.78
2022-10-15T17:21:03.327Z,26.75
2022-10-15T17:24:22.780Z,9.30
2022-10-15T17:27:39.284Z,10.10
2022-10-15T17:30:55.601Z,9.98
2022-10-15T17:34:15.711Z,8.80
2022-10-15T17:40:50.706Z,10.35
2022-10-15T17:44:07.106Z,9.48
2022-10-15T17:47:24.628Z,10.28
2022-10-15T17:50:45.247Z,7.80
2022-10-15T17:54:02.981Z,9.50
2022-10-15T17:57:20.337Z,8.55
2022-10-15T18:00:37.073Z,9.60
2022-10-15T18:03:54.107Z,8.75
2022-10-15T18:07:15.268Z,8.40
2022-10-15T18:10:32.133Z,8.23
2022-10-15T18:13:49.531Z,9.10
2022-10-15T18:17:05.909Z,10.28
2022-10-15T18:20:22.171Z,8.98
2022-10-15T18:23:45.739Z,9.55
2022-10-15T18:27:02.752Z,8.58
2022-10-15T18:30:20.539Z,11.90
2022-10-15T18:33:39.880Z,10.47
2022-10-15T18:36:56.256Z,9.35
2022-10-15T18:40:15.198Z,8.25
2022-10-15T18:43:31.710Z,9.95
2022-10-15T18:46:48.649Z,8.73
2022-10-15T18:50:04.779Z,10.23
2022-10-15T18:53:24.517Z,10.93
2022-10-15T18:56:44.991Z,10.60
2022-10-15T19:00:01.202Z,10.13
2022-10-15T19:03:18.530Z,8.73
2022-10-15T19:06:37.151Z,9.13
2022-10-15T19:09:53.884Z,9.28
2022-10-15T19:13:14.134Z,8.80
2022-10-15T19:16:30.660Z,9.38
2022-10-15T19:19:51.673Z,9.80
2022-10-15T19:23:10.697Z,8.93
2022-10-15T19:26:28.568Z,9.15
2022-10-15T19:29:45.214Z,10.85
2022-10-15T19:33:01.424Z,10.23
2022-10-15T19:36:19.789Z,9.43
2022-10-15T19:39:38.370Z,10.48
2022-10-15T19:42:54.520Z,11.80
2022-10-15T19:46:14.156Z,8.33
2022-10-15T19:49:30.531Z,9.80
2022-10-15T19:52:46.821Z,10.55
2022-10-15T19:56:09.564Z,9.68
2022-10-15T19:59:33.075Z,9.98
2022-10-15T20:02:51.792Z,10.70
2022-10-15T20:06:10.295Z,9.80
2022-10-15T20:09:26.551Z,9.08
2022-10-15T20:12:42.814Z,10.75
2022-10-15T20:16:01.234Z,13.83
2022-10-15T20:19:17.865Z,11.93
2022-10-15T20:22:34.597Z,11.23
2022-10-15T20:25:52.055Z,10.60
2022-10-15T20:29:08.401Z,12.15
2022-10-15T20:32:34.188Z,13.90
2022-10-15T20:35:45.056Z,13.20
2022-10-15T20:39:06.890Z,11.83
2022-10-15T20:42:23.262Z,11.75
2022-10-15T20:45:46.291Z,12.90
2022-10-15T20:49:07.684Z,14.05
2022-10-15T20:52:23.048Z,11.85
2022-10-15T20:55:39.511Z,12.45
2022-10-15T20:58:55.595Z,11.68
2022-10-15T21:02:11.672Z,16.05
2022-10-15T21:05:27.820Z,14.63
2022-10-15T21:08:44.130Z,13.75
2022-10-15T21:12:00.657Z,12.80
2022-10-15T21:15:18.033Z,13.13
2022-10-15T21:18:34.899Z,13.03
2022-10-15T21:21:53.986Z,12.08
2022-10-15T21:25:12.804Z,14.33
2022-10-15T21:28:29.112Z,13.20
2022-10-15T21:31:48.052Z,11.88
2022-10-15T21:35:06.078Z,12.38
2022-10-15T21:38:22.411Z,11.65
2022-10-15T21:41:40.999Z,13.63
2022-10-15T21:44:57.039Z,16.20
2022-10-15T21:48:14.543Z,15.73
2022-10-15T21:51:33.977Z,12.38
2022-10-15T21:54:50.017Z,13.80
2022-10-15T21:58:08.859Z,13.08
2022-10-15T22:01:28.165Z,14.98
2022-10-15T22:04:44.712Z,13.55
2022-10-15T22:08:00.708Z,14.05
2022-10-15T22:11:23.991Z,13.48
2022-10-15T22:14:40.351Z,12.75
2022-10-15T22:17:56.674Z,13.45
2022-10-15T22:21:26.715Z,11.80
2022-10-15T22:24:43.106Z,13.18
2022-10-15T22:27:59.160Z,12.50
2022-10-15T22:31:19.093Z,11.85
2022-10-15T22:34:35.182Z,12.63
2022-10-15T22:37:51.337Z,14.05
2022-10-15T22:41:08.007Z,13.95
2022-10-15T22:44:26.528Z,12.50
2022-10-15T22:47:42.575Z,13.27
2022-10-15T22:51:05.472Z,15.25
2022-10-15T22:54:22.645Z,16.83
2022-10-15T22:57:39.018Z,12.05
2022-10-15T23:00:55.340Z,11.83
2022-10-15T23:04:13.539Z,14.48
2022-10-15T23:07:29.598Z,14.75
2022-10-15T23:10:45.784Z,11.70
2022-10-15T23:14:06.489Z,12.28
2022-10-15T23:20:40.811Z,12.75
2022-10-15T23:23:59.108Z,12.08
2022-10-15T23:27:16.418Z,11.90
2022-10-15T23:30:32.635Z,13.08
2022-10-15T23:33:48.823Z,12.70
2022-10-15T23:37:04.920Z,11.88
2022-10-15T23:40:21.816Z,15.48
2022-10-15T23:43:37.882Z,14.70
2022-10-15T23:46:54.152Z,15.25
2022-10-15T23:50:10.874Z,12.10
2022-10-15T23:53:28.026Z,13.40
2022-10-15T23:56:44.614Z,11.73
